createdAt,value
2018-09-30T00:01:34.641Z,63.57
2018-09-30T00:04:03.857Z,63.34
2018-09-30T00:06:32.933Z,64.01
2018-09-30T00:09:02.013Z,64.83
2018-09-30T00:11:31.124Z,64.77
2018-09-30T00:14:00.313Z,66.23
2018-09-30T00:16:29.376Z,65.59
2018-09-30T00:18:58.567Z,65.99
2018-09-30T00:21:27.704Z,66.18
2018-09-30T00:24:02.100Z,64.88
2018-09-30T00:26:36.547Z,66.58
2018-09-30T00:29:05.645Z,66.83
2018-09-30T00:31:34.890Z,67.86
2018-09-30T00:34:09.256Z,66.40
2018-09-30T00:36:38.362Z,67.46
2018-09-30T00:39:07.702Z,68.36
2018-09-30T00:41:36.863Z,68.93
2018-09-30T00:44:05.945Z,69.28
2018-09-30T00:46:35.012Z,70.00
2018-09-30T00:49:04.271Z,69.78
2018-09-30T00:51:33.452Z,70.54
2018-09-30T00:54:02.673Z,71.59
2018-09-30T00:56:31.861Z,71.63
2018-09-30T00:59:00.933Z,71.32
2018-09-30T01:01:30.027Z,72.64
2018-09-30T01:03:59.165Z,72.29
2018-09-30T01:06:28.226Z,73.45
2018-09-30T01:08:57.297Z,73.53
2018-09-30T01:11:26.446Z,73.63
2018-09-30T01:13:55.593Z,74.05
2018-09-30T01:16:24.690Z,74.65
2018-09-30T01:18:53.840Z,75.26
2018-09-30T01:21:22.984Z,75.72
2018-09-30T01:23:52.059Z,75.95
2018-09-30T01:26:21.184Z,76.24
2018-09-30T01:28:50.282Z,76.87
2018-09-30T01:31:19.419Z,77.55
2018-09-30T01:33:48.577Z,77.25
2018-09-30T01:36:17.702Z,79.13
2018-09-30T01:38:46.806Z,79.25
2018-09-30T01:41:16.016Z,78.57
2018-09-30T01:43:45.148Z,79.33
2018-09-30T01:46:15.156Z,80.60
2018-09-30T01:48:44.236Z,81.12
2018-09-30T01:51:13.308Z,82.27
2018-09-30T01:53:42.362Z,82.59
2018-09-30T01:56:11.440Z,81.85
2018-09-30T01:58:40.669Z,82.37
2018-09-30T02:01:09.732Z,82.56
2018-09-30T02:03:38.893Z,83.08
2018-09-30T02:06:07.952Z,83.05
2018-09-30T02:08:37.104Z,84.36
2018-09-30T02:11:06.256Z,84.97
2018-09-30T02:13:35.373Z,84.46
2018-09-30T02:16:04.446Z,84.54
2018-09-30T02:18:33.819Z,83.75
2018-09-30T02:21:02.903Z,85.26
2018-09-30T02:23:32.012Z,84.74
2018-09-30T02:26:01.108Z,85.15
2018-09-30T02:28:30.235Z,85.34
2018-09-30T02:30:59.389Z,85.54
2018-09-30T02:33:28.516Z,85.59
2018-09-30T02:35:57.565Z,85.46
2018-09-30T02:38:26.783Z,86.13
2018-09-30T02:40:55.849Z,86.04
2018-09-30T02:43:24.908Z,85.68
2018-09-30T02:45:54.072Z,85.49
2018-09-30T02:48:23.143Z,86.60
2018-09-30T02:50:52.201Z,86.77
2018-09-30T02:53:21.373Z,88.34
2018-09-30T02:55:50.445Z,87.13
2018-09-30T02:58:19.656Z,87.81
2018-09-30T03:00:48.725Z,89.05
2018-09-30T03:03:17.956Z,87.59
2018-09-30T03:05:47.081Z,88.13
2018-09-30T03:08:21.501Z,88.15
2018-09-30T03:10:50.660Z,88.54
2018-09-30T03:13:19.848Z,89.54
2018-09-30T03:15:48.913Z,89.24
2018-09-30T03:18:17.964Z,88.82
2018-09-30T03:20:47.024Z,89.34
2018-09-30T03:23:16.101Z,88.71
2018-09-30T03:25:45.165Z,89.58
2018-09-30T03:28:14.310Z,89.89
2018-09-30T03:30:43.464Z,90.82
2018-09-30T03:33:12.558Z,89.66
2018-09-30T03:35:41.612Z,90.51
2018-09-30T03:38:10.759Z,89.66
2018-09-30T03:40:39.816Z,90.55
2018-09-30T03:43:08.896Z,89.60
2018-09-30T03:45:38.008Z,90.31
2018-09-30T03:48:07.175Z,91.81
2018-09-30T03:50:36.239Z,90.78
2018-09-30T03:53:05.384Z,90.40
2018-09-30T03:55:34.461Z,90.89
2018-09-30T03:58:03.673Z,91.18
2018-09-30T04:00:32.757Z,91.06
2018-09-30T04:03:01.916Z,90.29
2018-09-30T04:05:30.989Z,91.69
2018-09-30T04:08:00.078Z,91.86
2018-09-30T04:10:29.134Z,91.67
2018-09-30T04:12:58.291Z,91.78
2018-09-30T04:15:27.390Z,91.36
2018-09-30T04:17:56.450Z,92.72
2018-09-30T04:20:25.533Z,92.75
2018-09-30T04:22:54.633Z,92.75
2018-09-30T04:25:23.825Z,91.74
2018-09-30T04:27:52.908Z,91.73
2018-09-30T04:30:21.997Z,92.05
2018-09-30T04:32:51.100Z,91.59
2018-09-30T04:35:20.184Z,92.37
2018-09-30T04:37:49.391Z,91.73
2018-09-30T04:40:18.447Z,91.78
2018-09-30T04:42:47.500Z,91.04
2018-09-30T04:45:16.588Z,90.89
2018-09-30T04:47:45.668Z,94.27
2018-09-30T04:50:14.708Z,95.13
2018-09-30T04:52:43.786Z,93.55
2018-09-30T04:55:12.862Z,91.58
2018-09-30T04:57:41.991Z,91.82
2018-09-30T05:00:11.106Z,92.92
2018-09-30T05:02:40.352Z,93.12
2018-09-30T05:05:09.443Z,93.69
2018-09-30T05:07:38.554Z,93.38
2018-09-30T05:10:07.661Z,93.97
2018-09-30T05:12:36.838Z,94.92
2018-09-30T05:15:05.961Z,94.25
2018-09-30T05:17:35.073Z,94.09
2018-09-30T05:20:04.243Z,94.08
2018-09-30T05:22:33.315Z,93.59
2018-09-30T05:25:02.385Z,93.46
2018-09-30T05:27:31.649Z,93.71
2018-09-30T05:30:00.746Z,93.58
2018-09-30T05:32:29.884Z,93.49
2018-09-30T05:34:58.996Z,93.31
2018-09-30T05:37:28.072Z,93.19
2018-09-30T05:39:57.230Z,94.01
2018-09-30T05:42:26.298Z,94.58
2018-09-30T05:44:55.384Z,93.53
2018-09-30T05:47:24.569Z,93.74
2018-09-30T05:49:53.634Z,93.17
2018-09-30T05:52:22.777Z,92.51
2018-09-30T05:54:51.842Z,91.95
2018-09-30T05:57:20.940Z,93.02
2018-09-30T05:59:50.152Z,93.28
2018-09-30T06:02:19.236Z,94.16
2018-09-30T06:04:48.334Z,94.21
2018-09-30T06:07:17.492Z,93.81
2018-09-30T06:09:46.587Z,92.59
2018-09-30T06:12:15.676Z,93.28
2018-09-30T06:14:44.836Z,92.73
2018-09-30T06:17:13.927Z,92.93
2018-09-30T06:19:43.092Z,92.16
2018-09-30T06:22:12.217Z,91.61
2018-09-30T06:24:41.344Z,90.41
2018-09-30T06:27:10.505Z,90.83
2018-09-30T06:29:39.575Z,91.28
2018-09-30T06:32:08.684Z,91.43
2018-09-30T06:34:37.810Z,90.99
2018-09-30T06:37:06.958Z,89.52
2018-09-30T06:39:36.003Z,88.40
2018-09-30T06:42:05.189Z,87.99
2018-09-30T06:44:34.397Z,88.10
2018-09-30T06:47:03.620Z,87.45
2018-09-30T06:49:32.729Z,86.97
2018-09-30T06:52:01.893Z,86.39
2018-09-30T06:54:31.324Z,86.39
2018-09-30T06:57:00.620Z,86.04
2018-09-30T06:59:29.718Z,85.70
2018-09-30T07:01:58.808Z,85.88
2018-09-30T07:04:27.887Z,85.30
2018-09-30T07:06:57.013Z,85.12
2018-09-30T07:09:26.081Z,84.50
2018-09-30T07:11:55.144Z,84.29
2018-09-30T07:14:24.375Z,83.51
2018-09-30T07:16:53.465Z,84.48
2018-09-30T07:19:22.594Z,88.01
2018-09-30T07:21:51.696Z,87.05
2018-09-30T07:24:20.881Z,85.09
2018-09-30T07:26:50.016Z,83.64
2018-09-30T07:29:19.115Z,84.59
2018-09-30T07:31:48.268Z,84.42
2018-09-30T07:34:17.400Z,84.67
2018-09-30T07:36:46.503Z,85.14
2018-09-30T07:39:15.614Z,85.65
2018-09-30T07:41:44.732Z,85.62
2018-09-30T07:44:13.836Z,85.24
2018-09-30T07:46:43.035Z,85.69
2018-09-30T07:49:12.115Z,85.67
2018-09-30T07:51:41.224Z,85.85
2018-09-30T07:54:10.303Z,86.19
2018-09-30T07:56:39.378Z,85.78
2018-09-30T07:59:08.736Z,85.56
2018-09-30T08:01:37.859Z,85.53
2018-09-30T08:04:07.163Z,85.42
2018-09-30T08:06:36.375Z,86.01
2018-09-30T08:09:07.565Z,86.44
2018-09-30T08:11:36.740Z,85.93
2018-09-30T08:14:05.960Z,86.08
2018-09-30T08:16:35.140Z,86.90
2018-09-30T08:19:04.215Z,87.67
2018-09-30T08:21:33.411Z,87.58
2018-09-30T08:24:02.634Z,87.80
2018-09-30T08:26:31.793Z,88.02
2018-09-30T08:29:00.998Z,87.92
2018-09-30T08:31:30.111Z,88.21
2018-09-30T08:33:59.637Z,87.35
2018-09-30T08:36:28.789Z,87.72
2018-09-30T08:38:57.978Z,86.98
2018-09-30T08:41:27.068Z,87.13
2018-09-30T08:43:56.318Z,87.12
2018-09-30T08:46:25.389Z,86.97
2018-09-30T08:48:54.516Z,87.62
2018-09-30T08:51:24.021Z,87.94
2018-09-30T08:53:53.138Z,87.28
2018-09-30T08:56:22.277Z,86.08
2018-09-30T08:58:51.489Z,86.54
2018-09-30T09:01:20.657Z,85.45
2018-09-30T09:03:49.757Z,85.93
2018-09-30T09:06:18.876Z,86.17
2018-09-30T09:08:47.998Z,86.29
2018-09-30T09:11:17.092Z,85.91
2018-09-30T09:13:46.240Z,85.35
2018-09-30T09:16:15.340Z,85.72
2018-09-30T09:18:44.449Z,85.06
2018-09-30T09:21:13.657Z,85.65
2018-09-30T09:23:42.750Z,85.46
2018-09-30T09:26:11.950Z,85.54
2018-09-30T09:28:41.040Z,85.27
2018-09-30T09:31:10.168Z,84.02
2018-09-30T09:33:39.253Z,84.48
2018-09-30T09:36:08.412Z,83.74
2018-09-30T09:38:37.515Z,83.77
2018-09-30T09:41:06.606Z,83.77
2018-09-30T09:43:35.792Z,83.95
2018-09-30T09:46:05.003Z,83.12
2018-09-30T09:48:34.094Z,83.38
2018-09-30T09:51:03.659Z,82.24
2018-09-30T09:53:32.828Z,82.21
2018-09-30T09:56:01.916Z,82.28
2018-09-30T09:58:31.115Z,81.87
2018-09-30T10:01:04.431Z,81.84
2018-09-30T10:03:33.531Z,81.26
2018-09-30T10:06:02.747Z,81.97
2018-09-30T10:08:31.866Z,80.21
2018-09-30T10:11:00.977Z,80.37
2018-09-30T10:13:30.092Z,80.67
2018-09-30T10:15:59.345Z,80.32
2018-09-30T10:18:28.559Z,80.36
2018-09-30T10:20:57.651Z,80.42
2018-09-30T10:23:26.739Z,79.67
2018-09-30T10:25:56.034Z,79.95
2018-09-30T10:28:25.153Z,80.08
2018-09-30T10:30:54.325Z,79.70
2018-09-30T10:33:23.503Z,78.76
2018-09-30T10:35:52.597Z,78.45
2018-09-30T10:38:21.779Z,77.97
2018-09-30T10:40:51.014Z,78.37
2018-09-30T10:43:20.108Z,78.04
2018-09-30T10:45:49.311Z,77.52
2018-09-30T10:48:18.415Z,77.61
2018-09-30T10:50:47.512Z,76.63
2018-09-30T10:53:16.602Z,75.72
2018-09-30T10:55:45.700Z,75.64
2018-09-30T10:58:14.864Z,75.04
2018-09-30T11:00:43.928Z,74.46
2018-09-30T11:03:13.100Z,73.38
2018-09-30T11:05:42.232Z,72.22
2018-09-30T11:08:11.342Z,72.23
2018-09-30T11:10:40.465Z,72.05
2018-09-30T11:13:09.569Z,70.23
2018-09-30T11:15:38.775Z,69.88
2018-09-30T11:18:07.985Z,69.19
2018-09-30T11:20:37.164Z,67.89
2018-09-30T11:23:06.279Z,66.68
2018-09-30T11:25:35.467Z,67.08
2018-09-30T11:28:04.644Z,63.71
2018-09-30T11:30:33.751Z,63.01
2018-09-30T11:33:02.863Z,64.38
2018-09-30T11:35:31.951Z,61.77
2018-09-30T11:38:01.139Z,61.10
2018-09-30T11:40:30.346Z,58.87
2018-09-30T11:42:59.561Z,52.94
2018-09-30T11:45:28.735Z,49.29
2018-09-30T11:47:57.939Z,46.23
2018-09-30T11:50:27.113Z,40.95
2018-09-30T11:52:56.196Z,41.10
2018-09-30T11:55:25.329Z,38.86
2018-09-30T11:57:54.414Z,37.50
2018-09-30T12:00:23.504Z,39.14
2018-09-30T12:02:52.605Z,39.62
2018-09-30T12:05:21.737Z,39.47
2018-09-30T12:07:50.985Z,38.70
2018-09-30T12:10:20.066Z,39.36
2018-09-30T12:12:49.189Z,39.04
2018-09-30T12:15:18.380Z,36.38
2018-09-30T12:17:47.592Z,34.86
2018-09-30T12:20:16.676Z,34.95
2018-09-30T12:22:45.764Z,32.58
2018-09-30T12:25:14.984Z,33.15
2018-09-30T12:27:44.069Z,35.12
2018-09-30T12:30:13.160Z,32.73
2018-09-30T12:32:42.290Z,31.79
2018-09-30T12:35:11.459Z,35.83
2018-09-30T12:37:40.727Z,35.50
2018-09-30T12:40:09.903Z,32.79
2018-09-30T12:42:39.032Z,31.89
2018-09-30T12:45:08.143Z,33.09
2018-09-30T12:47:37.243Z,32.44
2018-09-30T12:50:06.369Z,31.33
2018-09-30T12:52:35.536Z,32.43
2018-09-30T12:55:04.777Z,31.03
2018-09-30T12:57:33.925Z,32.16
2018-09-30T13:00:03.043Z,31.74
2018-09-30T13:02:32.260Z,29.30
2018-09-30T13:05:01.345Z,32.01
2018-09-30T13:07:30.583Z,30.41
2018-09-30T13:09:59.812Z,34.23
2018-09-30T13:12:28.892Z,30.28
2018-09-30T13:14:57.983Z,30.31
2018-09-30T13:17:27.261Z,30.10
2018-09-30T13:19:56.501Z,31.00
2018-09-30T13:22:25.558Z,30.33
2018-09-30T13:24:54.746Z,29.35
2018-09-30T13:27:23.872Z,31.61
2018-09-30T13:29:52.987Z,30.04
2018-09-30T13:32:22.134Z,28.09
2018-09-30T13:34:51.264Z,28.30
2018-09-30T13:37:20.596Z,29.21
2018-09-30T13:39:49.957Z,32.86
2018-09-30T13:42:19.274Z,30.36
2018-09-30T13:44:48.353Z,28.70
2018-09-30T13:47:17.468Z,29.37
2018-09-30T13:49:46.574Z,30.23
2018-09-30T13:52:15.748Z,29.14
2018-09-30T13:54:44.811Z,29.17
2018-09-30T13:57:13.988Z,28.66
2018-09-30T13:59:43.155Z,29.27
2018-09-30T14:02:12.238Z,28.09
2018-09-30T14:04:41.349Z,28.82
2018-09-30T14:07:10.543Z,28.92
2018-09-30T14:09:39.653Z,30.33
2018-09-30T14:12:08.827Z,29.27
2018-09-30T14:14:38.029Z,30.84
2018-09-30T14:17:07.272Z,30.57
2018-09-30T14:19:36.340Z,29.62
2018-09-30T14:22:05.531Z,30.19
2018-09-30T14:24:34.741Z,29.50
2018-09-30T14:27:03.913Z,29.11
2018-09-30T14:29:32.901Z,28.57
2018-09-30T14:32:02.535Z,29.23
2018-09-30T14:34:31.799Z,28.51
2018-09-30T14:37:00.908Z,28.83
2018-09-30T14:39:30.000Z,29.22
2018-09-30T14:41:59.251Z,29.45
2018-09-30T14:44:28.324Z,29.23
2018-09-30T14:46:57.528Z,31.87
2018-09-30T14:49:26.632Z,31.99
2018-09-30T14:51:55.708Z,30.56
2018-09-30T14:54:24.836Z,31.01
2018-09-30T14:56:53.965Z,30.43
2018-09-30T14:59:23.032Z,30.98
2018-09-30T15:01:52.296Z,31.61
2018-09-30T15:04:21.492Z,32.08
2018-09-30T15:06:50.660Z,33.46
2018-09-30T15:09:19.900Z,33.56
2018-09-30T15:11:49.150Z,33.38
2018-09-30T15:14:18.557Z,33.12
2018-09-30T15:16:47.700Z,34.88
2018-09-30T15:19:16.859Z,32.96
2018-09-30T15:21:46.088Z,35.38
2018-09-30T15:24:15.341Z,34.80
2018-09-30T15:26:44.492Z,35.66
2018-09-30T15:29:13.578Z,35.18
2018-09-30T15:31:42.675Z,34.28
2018-09-30T15:34:11.763Z,35.42
2018-09-30T15:36:40.851Z,34.24
2018-09-30T15:39:11.820Z,36.15
2018-09-30T15:41:41.315Z,37.39
2018-09-30T15:44:11.564Z,36.69
2018-09-30T15:46:40.682Z,37.69
2018-09-30T15:49:09.910Z,37.77
2018-09-30T15:51:39.120Z,39.19
2018-09-30T15:54:08.481Z,39.73
2018-09-30T15:56:37.648Z,40.61
2018-09-30T15:59:06.797Z,40.98
2018-09-30T16:01:35.892Z,42.64
2018-09-30T16:04:04.984Z,45.74
2018-09-30T16:06:34.062Z,49.62
2018-09-30T16:09:03.455Z,48.99
2018-09-30T16:11:32.532Z,48.90
2018-09-30T16:14:01.754Z,49.02
2018-09-30T16:16:30.862Z,50.37
2018-09-30T16:18:59.968Z,53.77
2018-09-30T16:21:29.123Z,54.97
2018-09-30T16:23:58.158Z,56.00
2018-09-30T16:26:27.373Z,56.75
2018-09-30T16:28:56.491Z,58.02
2018-09-30T16:31:25.572Z,59.10
2018-09-30T16:33:54.693Z,58.37
2018-09-30T16:36:23.825Z,58.66
2018-09-30T16:38:53.093Z,60.25
2018-09-30T16:41:22.251Z,61.12
2018-09-30T16:43:51.433Z,61.90
2018-09-30T16:46:20.625Z,63.21
2018-09-30T16:48:50.341Z,63.58
2018-09-30T16:51:19.543Z,62.86
2018-09-30T16:53:48.725Z,64.40
2018-09-30T16:56:17.818Z,64.64
2018-09-30T16:58:46.929Z,66.28
2018-09-30T17:01:16.033Z,67.37
2018-09-30T17:03:45.220Z,67.68
2018-09-30T17:06:14.595Z,69.37
2018-09-30T17:08:43.830Z,70.45
2018-09-30T17:11:12.989Z,72.10
2018-09-30T17:13:42.109Z,72.05
2018-09-30T17:16:11.367Z,72.70
2018-09-30T17:18:40.516Z,75.89
2018-09-30T17:21:09.621Z,74.96
2018-09-30T17:23:38.817Z,76.57
2018-09-30T17:26:07.940Z,76.67
2018-09-30T17:28:37.240Z,78.59
2018-09-30T17:31:06.581Z,78.23
2018-09-30T17:33:35.695Z,79.63
2018-09-30T17:36:04.805Z,79.27
2018-09-30T17:38:33.987Z,81.04
2018-09-30T17:41:03.171Z,81.48
2018-09-30T17:43:32.387Z,82.93
2018-09-30T17:46:01.563Z,84.37
2018-09-30T17:48:30.675Z,84.26
2018-09-30T17:50:59.861Z,84.76
2018-09-30T17:53:28.987Z,84.70
2018-09-30T17:55:58.199Z,86.22
2018-09-30T17:58:27.335Z,86.23
2018-09-30T18:00:56.435Z,87.38
2018-09-30T18:03:25.551Z,88.22
2018-09-30T18:05:54.649Z,87.37
2018-09-30T18:08:23.840Z,87.40
2018-09-30T18:10:52.947Z,88.04
2018-09-30T18:13:22.047Z,89.13
2018-09-30T18:15:51.137Z,89.76
2018-09-30T18:18:20.449Z,89.58
2018-09-30T18:20:49.611Z,89.44
2018-09-30T18:23:18.705Z,90.18
2018-09-30T18:25:47.797Z,90.37
2018-09-30T18:28:16.899Z,90.31
2018-09-30T18:30:46.010Z,90.54
2018-09-30T18:33:15.097Z,92.02
2018-09-30T18:35:44.200Z,92.61
2018-09-30T18:38:13.293Z,92.41
2018-09-30T18:40:47.401Z,93.37
2018-09-30T18:43:16.602Z,92.64
2018-09-30T18:45:45.899Z,92.83
2018-09-30T18:48:14.981Z,93.59
2018-09-30T18:50:44.189Z,93.35
2018-09-30T18:53:13.401Z,94.48
2018-09-30T18:55:42.600Z,94.54
2018-09-30T18:58:11.705Z,94.62
2018-09-30T19:00:40.878Z,94.85
2018-09-30T19:03:10.015Z,96.42
2018-09-30T19:05:39.201Z,95.05
2018-09-30T19:08:08.369Z,95.38
2018-09-30T19:10:37.553Z,95.97
2018-09-30T19:13:06.653Z,96.14
2018-09-30T19:15:35.753Z,96.95
2018-09-30T19:18:04.937Z,97.06
2018-09-30T19:20:33.996Z,96.59
2018-09-30T19:23:03.153Z,97.32
2018-09-30T19:25:32.356Z,97.27
2018-09-30T19:28:01.566Z,97.29
2018-09-30T19:30:30.822Z,97.43
2018-09-30T19:32:59.942Z,97.26
2018-09-30T19:35:29.068Z,97.63
2018-09-30T19:37:58.272Z,97.52
2018-09-30T19:40:27.359Z,97.61
2018-09-30T19:42:56.502Z,98.31
2018-09-30T19:45:25.596Z,98.47
2018-09-30T19:47:54.700Z,98.59
2018-09-30T19:50:23.804Z,98.32
2018-09-30T19:52:52.962Z,99.45
2018-09-30T19:55:22.043Z,99.54
2018-09-30T19:57:51.203Z,99.58
2018-09-30T20:00:20.303Z,99.70
2018-09-30T20:02:49.409Z,99.39
2018-09-30T20:05:18.512Z,100.00
2018-09-30T20:07:47.715Z,99.78
2018-09-30T20:10:16.883Z,99.68
2018-09-30T20:12:46.100Z,100.00
2018-09-30T20:15:15.212Z,100.00
2018-09-30T20:17:44.386Z,100.00
2018-09-30T20:20:13.583Z,100.00
2018-09-30T20:22:42.783Z,100.00
2018-09-30T20:25:11.869Z,100.00
2018-09-30T20:27:41.095Z,100.00
2018-09-30T20:30:10.261Z,100.00
2018-09-30T20:32:39.369Z,100.00
2018-09-30T20:35:09.039Z,100.00
2018-09-30T20:37:38.144Z,100.00
2018-09-30T20:40:07.519Z,100.00
2018-09-30T20:42:36.632Z,100.00
2018-09-30T20:45:05.845Z,100.00
2018-09-30T20:47:35.200Z,100.00
2018-09-30T20:50:04.418Z,100.00
2018-09-30T20:52:33.532Z,100.00
2018-09-30T20:55:02.684Z,100.00
2018-09-30T20:57:31.828Z,100.00
2018-09-30T21:00:00.956Z,100.00
2018-09-30T21:02:30.120Z,100.00
2018-09-30T21:05:02.481Z,100.00
2018-09-30T21:07:31.589Z,100.00
2018-09-30T21:10:00.830Z,100.00
2018-09-30T21:12:29.927Z,100.00
2018-09-30T21:18:08.912Z,100.00
2018-09-30T21:20:38.032Z,100.00
2018-09-30T21:23:07.139Z,100.00
2018-09-30T21:25:36.255Z,100.00
2018-09-30T21:28:05.584Z,100.00
2018-09-30T21:30:34.764Z,100.00
2018-09-30T21:33:03.983Z,100.00
2018-09-30T21:35:33.143Z,100.00
2018-09-30T21:38:02.381Z,100.00
2018-09-30T21:40:31.539Z,100.00
2018-09-30T21:43:00.679Z,99.43
2018-09-30T21:45:29.789Z,99.70
2018-09-30T21:47:58.953Z,99.94
2018-09-30T21:50:28.052Z,99.83
2018-09-30T21:52:57.161Z,100.00
2018-09-30T21:55:26.329Z,100.00
2018-09-30T21:57:55.515Z,100.00
2018-09-30T22:00:29.964Z,100.00
2018-09-30T22:02:59.084Z,100.00
2018-09-30T22:05:28.199Z,100.00
2018-09-30T22:07:57.347Z,100.00
2018-09-30T22:10:26.544Z,100.00
2018-09-30T22:12:55.933Z,100.00
2018-09-30T22:15:25.040Z,100.00
2018-09-30T22:17:54.179Z,100.00
2018-09-30T22:20:23.676Z,100.00
2018-09-30T22:22:52.815Z,100.00
2018-09-30T22:25:21.911Z,100.00
2018-09-30T22:27:51.967Z,100.00
2018-09-30T22:30:21.088Z,100.00
2018-09-30T22:32:50.203Z,100.00
2018-09-30T22:35:19.720Z,100.00
2018-09-30T22:37:48.840Z,100.00
2018-09-30T22:40:18.157Z,100.00
2018-09-30T22:42:47.148Z,100.00
2018-09-30T22:45:16.249Z,100.00
2018-09-30T22:47:45.448Z,100.00
2018-09-30T22:50:14.565Z,100.00
2018-09-30T22:52:43.654Z,100.00
2018-09-30T22:55:12.821Z,100.00
2018-09-30T22:57:42.012Z,100.00
2018-09-30T23:00:11.134Z,100.00
2018-09-30T23:02:40.311Z,100.00
2018-09-30T23:05:10.208Z,100.00
2018-09-30T23:07:39.356Z,100.00
2018-09-30T23:10:10.513Z,100.00
2018-09-30T23:12:39.612Z,100.00
2018-09-30T23:15:08.856Z,100.00
2018-09-30T23:17:37.956Z,100.00
2018-09-30T23:20:11.989Z,100.00
2018-09-30T23:22:41.076Z,100.00
2018-09-30T23:25:10.344Z,100.00
2018-09-30T23:27:39.512Z,100.00
2018-09-30T23:30:08.808Z,100.00
2018-09-30T23:32:38.500Z,100.00
2018-09-30T23:35:07.765Z,100.00
2018-09-30T23:37:36.892Z,100.00
2018-09-30T23:40:06.518Z,100.00
2018-09-30T23:42:35.992Z,100.00
2018-09-30T23:45:05.725Z,100.00
2018-09-30T23:47:34.966Z,100.00
2018-09-30T23:50:04.188Z,100.00
2018-09-30T23:52:33.332Z,100.00
2018-09-30T23:55:02.464Z,100.00
2018-09-30T23:57:31.548Z,100.00
